Tropical Cyclones
[Index]
Main Index Home Page Stock Weather Photos Extreme Storms Discussion Storm News and Storm Chasing Reports Tropical Cyclones / Hurricanes / Typhoons Weather Data and Links Wild Fires / Bushfires Weather Observation Techniques Weather Picture Catalogue Tornado Pictures and Reports Stock Video Footage and DVDs for sale
Season 1998-1999 Tropical Cyclone ELAINE Track Map
Season 1998-1999 Summaries: [BoM-AU] [JTWC-AU] [JTWC-SIO] [JTWC-SPAC] [JTWC-SH]
<<- Previous TC | BoM 1998-1999 Season | Next TC ->>

click for intensity scale information  Lat/long Grid: Show Hide

 Date Labels: Show Hide

Bureau of Meteorology Tropical Cyclone Data

Name: ELAINE
Number: 826 / 199899_11

15 Mar 1999 01:00 UTC to 20 Mar 1999 10:00 UTC

    date/time    lat    long    hPa   cat  kts
1999-03-15 01   13.1   117.5   1002         23          
1999-03-15 04   13.2   117.2   1002         23          
1999-03-15 07   13.2   117.0   1000         27          
1999-03-15 10   13.3   116.7   1000         27          
1999-03-15 16   13.6   116.2   1000         27          
1999-03-16 01   14.0   115.8    995    1    35          
1999-03-16 04   14.1   115.6    995    1    35          
1999-03-16 07   14.2   115.4    990    1    41          
1999-03-16 10   14.4   115.1    990    1    41          
1999-03-16 13   14.7   114.7    985    2    49          
1999-03-16 16   14.9   114.2    980    2    54          
1999-03-16 19   15.1   113.7    980    2    54          
1999-03-16 22   15.4   113.2    975    2    60          
1999-03-17 01   15.7   112.7    970    3    64          
1999-03-17 04   16.0   112.4    965    3    70          
1999-03-17 07   16.4   112.0    965    3    70          
1999-03-17 10   16.8   111.7    965    3    70          
1999-03-17 13   17.2   111.5    960    3    76          
1999-03-17 16   17.6   111.3    960    3    76          
1999-03-17 19   18.0   111.1    955    4    80          
1999-03-17 22   18.5   110.9    950    4    84          
1999-03-18 01   18.9   110.8    945    4    89          
1999-03-18 04   19.3   110.8    945    4    89          
1999-03-18 07   19.8   110.8    945    4    89          
1999-03-18 10   20.3   110.9    945    4    89          
1999-03-18 13   20.9   111.0    950    4    84          
1999-03-18 16   21.5   111.0    955    4    80          
1999-03-18 19   22.1   111.0    955    4    80          
1999-03-18 22   22.7   111.1    965    3    70          
1999-03-19 01   23.3   111.1    970    3    64          
1999-03-19 04   23.7   111.2    975    2    60          
1999-03-19 07   24.3   111.3    975    2    60          
1999-03-19 10   24.8   111.5    980    2    54          
1999-03-19 13   25.4   111.8    980    2    54          
1999-03-19 16   26.1   112.2    985    2    49          
1999-03-19 19   26.8   112.8    990    1    41          
1999-03-19 22   27.5   113.5    995    1    35          
1999-03-20 01   28.2   114.2    997         31          
1999-03-20 04   28.7   115.0    997         31          
1999-03-20 07   28.9   115.9    997         31          
1999-03-20 10   28.9   117.0    998         29          
Winds are 10-min average.

Tropical cyclone tracks developed by Michael Bath using data from the Bureau of Meteorology and Google Maps.


[Australian Severe Weather index] [Copyright Notice] [Email Contacts] [Search This Site] [Privacy Policy]
Document: tropical_cyclone_elaine.htm Updated: 30 May 2013